createdAt,value
2019-03-18T00:00:54.626Z,79.40
2019-03-18T00:03:21.946Z,78.60
2019-03-18T00:05:49.339Z,77.80
2019-03-18T00:08:16.754Z,77.70
2019-03-18T00:10:44.133Z,74.90
2019-03-18T00:13:11.526Z,71.50
2019-03-18T00:15:38.839Z,70.80
2019-03-18T00:18:06.259Z,70.60
2019-03-18T00:20:33.622Z,70.30
2019-03-18T00:23:00.942Z,69.70
2019-03-18T00:25:28.270Z,68.90
2019-03-18T00:27:55.666Z,68.60
2019-03-18T00:30:23.050Z,69.00
2019-03-18T00:32:50.801Z,69.70
2019-03-18T00:35:18.164Z,69.00
2019-03-18T00:37:45.488Z,68.60
2019-03-18T00:40:12.930Z,70.00
2019-03-18T00:42:40.327Z,72.30
2019-03-18T00:45:14.653Z,74.00
2019-03-18T00:47:37.340Z,74.60
2019-03-18T00:50:05.194Z,75.60
2019-03-18T00:52:32.582Z,76.50
2019-03-18T00:54:59.947Z,76.60
2019-03-18T00:57:27.247Z,77.00
2019-03-18T00:59:54.975Z,77.60
2019-03-18T01:02:22.367Z,78.10
2019-03-18T01:04:49.699Z,78.20
2019-03-18T01:07:17.104Z,78.90
2019-03-18T01:09:44.518Z,78.30
2019-03-18T01:12:11.916Z,78.30
2019-03-18T01:14:39.334Z,79.50
2019-03-18T01:17:06.782Z,80.00
2019-03-18T01:19:34.137Z,80.80
2019-03-18T01:22:01.525Z,81.10
2019-03-18T01:24:29.234Z,82.00
2019-03-18T01:26:56.512Z,82.30
2019-03-18T01:29:23.820Z,82.70
2019-03-18T01:31:51.132Z,82.50
2019-03-18T01:34:18.446Z,82.50
2019-03-18T01:36:45.826Z,82.20
2019-03-18T01:39:13.152Z,81.80
2019-03-18T01:41:40.445Z,82.10
2019-03-18T01:44:08.123Z,82.40
2019-03-18T01:46:35.395Z,82.10
2019-03-18T01:49:02.715Z,81.80
2019-03-18T01:51:30.096Z,80.70
2019-03-18T01:53:57.457Z,81.10
2019-03-18T01:56:24.780Z,81.00
2019-03-18T01:58:52.156Z,81.20
2019-03-18T02:01:19.589Z,80.60
2019-03-18T02:03:46.990Z,81.00
2019-03-18T02:06:14.480Z,81.10
2019-03-18T02:08:41.702Z,81.10
2019-03-18T02:11:09.077Z,80.20
2019-03-18T02:13:36.359Z,79.90
2019-03-18T02:16:04.438Z,79.70
2019-03-18T02:18:32.134Z,79.20
2019-03-18T02:20:59.452Z,79.30
2019-03-18T02:23:26.861Z,80.20
2019-03-18T02:25:54.302Z,81.60
2019-03-18T02:28:21.711Z,82.00
2019-03-18T02:30:49.051Z,82.90
2019-03-18T02:33:16.457Z,82.10
2019-03-18T02:35:43.812Z,80.50
2019-03-18T02:38:11.229Z,81.20
2019-03-18T02:40:38.631Z,80.80
2019-03-18T02:43:05.938Z,81.40
2019-03-18T02:45:33.332Z,81.30
2019-03-18T02:48:00.696Z,81.60
2019-03-18T02:50:28.131Z,82.30
2019-03-18T02:52:55.506Z,82.60
2019-03-18T02:55:22.809Z,82.60
2019-03-18T02:57:50.199Z,82.40
2019-03-18T03:00:17.578Z,82.50
2019-03-18T03:02:45.008Z,82.00
2019-03-18T03:05:12.631Z,81.40
2019-03-18T03:07:40.086Z,81.50
2019-03-18T03:10:08.094Z,81.00
2019-03-18T03:12:35.497Z,81.40
2019-03-18T03:15:03.293Z,81.40
2019-03-18T03:17:30.711Z,81.70
2019-03-18T03:19:58.081Z,82.30
2019-03-18T03:22:25.492Z,81.20
2019-03-18T03:24:52.897Z,82.30
2019-03-18T03:27:20.296Z,81.20
2019-03-18T03:29:47.625Z,80.90
2019-03-18T03:32:15.008Z,81.00
2019-03-18T03:34:42.330Z,81.10
2019-03-18T03:37:09.636Z,81.60
2019-03-18T03:39:37.039Z,82.30
2019-03-18T03:42:04.329Z,83.00
2019-03-18T03:44:31.691Z,82.60
2019-03-18T03:46:59.121Z,82.70
2019-03-18T03:49:26.491Z,82.80
2019-03-18T03:51:54.238Z,83.10
2019-03-18T03:54:21.699Z,83.70
2019-03-18T03:56:49.091Z,82.70
2019-03-18T03:59:16.717Z,82.10
2019-03-18T04:01:44.216Z,83.00
2019-03-18T04:04:11.689Z,83.20
2019-03-18T04:06:39.192Z,84.80
2019-03-18T04:09:06.602Z,84.40
2019-03-18T04:11:34.030Z,83.20
2019-03-18T04:14:01.423Z,84.40
2019-03-18T04:16:28.738Z,85.20
2019-03-18T04:18:56.167Z,84.70
2019-03-18T04:21:23.558Z,84.60
2019-03-18T04:23:50.922Z,84.70
2019-03-18T04:26:18.289Z,84.80
2019-03-18T04:28:45.597Z,84.20
2019-03-18T04:31:12.910Z,83.60
2019-03-18T04:33:40.250Z,83.10
2019-03-18T04:36:07.649Z,83.90
2019-03-18T04:38:34.941Z,84.20
2019-03-18T04:41:02.343Z,84.60
2019-03-18T04:43:29.739Z,84.30
2019-03-18T04:45:57.127Z,84.90
2019-03-18T04:48:24.573Z,84.40
2019-03-18T04:50:52.001Z,85.40
2019-03-18T04:53:19.392Z,84.80
2019-03-18T04:55:46.697Z,85.90
2019-03-18T04:58:13.982Z,85.70
2019-03-18T05:00:41.541Z,84.70
2019-03-18T05:03:08.931Z,85.00
2019-03-18T05:05:36.321Z,84.10
2019-03-18T05:08:03.668Z,84.50
2019-03-18T05:10:31.073Z,83.40
2019-03-18T05:12:58.441Z,82.40
2019-03-18T05:15:25.743Z,83.00
2019-03-18T05:17:53.149Z,82.70
2019-03-18T05:20:20.516Z,82.30
2019-03-18T05:22:47.896Z,82.00
2019-03-18T05:25:15.230Z,81.90
2019-03-18T05:27:42.611Z,81.20
2019-03-18T05:30:10.109Z,81.00
2019-03-18T05:32:37.513Z,80.80
2019-03-18T05:35:04.964Z,80.50
2019-03-18T05:37:32.271Z,81.40
2019-03-18T05:39:59.552Z,81.70
2019-03-18T05:42:26.957Z,81.40
2019-03-18T05:44:54.232Z,81.10
2019-03-18T05:47:21.925Z,81.10
2019-03-18T05:49:49.206Z,82.30
2019-03-18T05:52:16.634Z,81.80
2019-03-18T05:54:44.013Z,82.20
2019-03-18T05:57:11.328Z,81.60
2019-03-18T05:59:38.745Z,82.90
2019-03-18T06:02:06.152Z,83.10
2019-03-18T06:04:33.543Z,82.10
2019-03-18T06:07:01.354Z,83.40
2019-03-18T06:09:29.034Z,83.10
2019-03-18T06:11:56.329Z,82.20
2019-03-18T06:14:23.758Z,82.70
2019-03-18T06:16:51.239Z,82.80
2019-03-18T06:19:18.631Z,82.60
2019-03-18T06:21:46.047Z,82.60
2019-03-18T06:24:13.439Z,82.30
2019-03-18T06:26:40.834Z,83.00
2019-03-18T06:29:08.603Z,83.30
2019-03-18T06:31:36.035Z,82.40
2019-03-18T06:34:03.406Z,81.40
2019-03-18T06:36:30.861Z,81.00
2019-03-18T06:38:58.240Z,82.00
2019-03-18T06:41:25.566Z,82.70
2019-03-18T06:43:52.964Z,82.40
2019-03-18T06:46:20.273Z,82.70
2019-03-18T06:48:47.798Z,82.20
2019-03-18T06:51:15.220Z,81.60
2019-03-18T06:53:42.674Z,83.00
2019-03-18T06:56:10.029Z,83.00
2019-03-18T06:58:37.331Z,82.00
2019-03-18T07:01:05.037Z,82.00
2019-03-18T07:03:32.343Z,81.20
2019-03-18T07:05:59.725Z,80.40
2019-03-18T07:08:27.564Z,79.60
2019-03-18T07:10:54.975Z,79.00
2019-03-18T07:13:22.370Z,79.80
2019-03-18T07:15:49.796Z,79.70
2019-03-18T07:18:18.785Z,79.40
2019-03-18T07:20:46.515Z,79.30
2019-03-18T07:23:13.951Z,78.70
2019-03-18T07:25:41.353Z,78.20
2019-03-18T07:28:09.171Z,77.20
2019-03-18T07:30:36.568Z,76.20
2019-03-18T07:33:03.981Z,78.00
2019-03-18T07:35:31.401Z,77.90
2019-03-18T07:37:58.672Z,78.00
2019-03-18T07:40:25.957Z,77.90
2019-03-18T07:42:53.230Z,76.10
2019-03-18T07:45:20.540Z,76.50
2019-03-18T07:47:47.976Z,76.20
2019-03-18T07:50:15.304Z,72.50
2019-03-18T07:52:42.756Z,73.00
2019-03-18T07:55:10.258Z,71.60
2019-03-18T07:57:37.656Z,72.40
2019-03-18T08:00:05.209Z,70.50
2019-03-18T08:02:32.603Z,68.50
2019-03-18T08:04:59.917Z,68.00
2019-03-18T08:07:27.346Z,66.20
2019-03-18T08:09:54.725Z,69.30
2019-03-18T08:12:22.052Z,66.40
2019-03-18T08:14:49.479Z,67.00
2019-03-18T08:17:16.775Z,65.90
2019-03-18T08:19:44.122Z,66.40
2019-03-18T08:22:11.731Z,66.10
2019-03-18T08:24:39.133Z,67.00
2019-03-18T08:27:06.571Z,66.70
2019-03-18T08:29:33.972Z,66.70
2019-03-18T08:32:01.270Z,65.30
2019-03-18T08:34:28.594Z,65.50
2019-03-18T08:36:56.038Z,65.20
2019-03-18T08:39:23.356Z,66.30
2019-03-18T08:41:50.765Z,66.40
2019-03-18T08:44:18.064Z,64.70
2019-03-18T08:46:45.489Z,65.50
2019-03-18T08:49:12.885Z,66.20
2019-03-18T08:51:40.599Z,66.80
2019-03-18T08:54:08.004Z,65.90
2019-03-18T08:56:35.402Z,63.10
2019-03-18T08:59:02.839Z,63.60
2019-03-18T09:01:30.224Z,63.00
2019-03-18T09:03:57.558Z,62.80
2019-03-18T09:06:24.894Z,62.80
2019-03-18T09:08:52.281Z,62.80
2019-03-18T09:11:19.627Z,62.80
2019-03-18T09:13:47.291Z,63.70
2019-03-18T09:16:14.628Z,64.30
2019-03-18T09:18:41.948Z,62.40
2019-03-18T09:21:09.368Z,62.60
2019-03-18T09:23:36.762Z,60.80
2019-03-18T09:26:04.096Z,61.80
2019-03-18T09:28:31.506Z,62.90
2019-03-18T09:30:58.982Z,62.30
2019-03-18T09:33:26.377Z,62.40
2019-03-18T09:35:54.138Z,62.60
2019-03-18T09:38:21.580Z,62.40
2019-03-18T09:40:49.302Z,61.30
2019-03-18T09:43:16.645Z,60.10
2019-03-18T09:45:44.035Z,58.60
2019-03-18T09:48:11.483Z,58.30
2019-03-18T09:50:38.891Z,55.50
2019-03-18T09:53:06.351Z,57.90
2019-03-18T09:55:33.792Z,58.20
2019-03-18T09:58:01.213Z,58.30
2019-03-18T10:00:28.537Z,58.60
2019-03-18T10:02:55.968Z,57.80
2019-03-18T10:05:23.396Z,58.40
2019-03-18T10:07:50.839Z,58.80
2019-03-18T10:10:18.237Z,59.00
2019-03-18T10:12:45.559Z,59.50
2019-03-18T10:15:12.929Z,59.20
2019-03-18T10:17:40.370Z,60.20
2019-03-18T10:20:08.196Z,60.70
2019-03-18T10:22:36.154Z,62.20
2019-03-18T10:25:04.491Z,63.90
2019-03-18T10:27:32.011Z,66.50
2019-03-18T10:29:59.466Z,67.40
2019-03-18T10:32:26.757Z,66.00
2019-03-18T10:34:54.198Z,65.70
2019-03-18T10:37:21.604Z,63.90
2019-03-18T10:39:48.988Z,61.40
2019-03-18T10:42:16.382Z,56.50
2019-03-18T10:44:43.677Z,54.90
2019-03-18T10:47:11.009Z,54.50
2019-03-18T10:49:46.074Z,54.70
2019-03-18T10:52:07.646Z,55.60
2019-03-18T10:54:35.389Z,55.90
2019-03-18T10:57:02.772Z,56.80
2019-03-18T10:59:30.210Z,57.40
2019-03-18T11:01:57.645Z,57.80
2019-03-18T11:04:25.067Z,59.40
2019-03-18T11:06:52.346Z,59.20
2019-03-18T11:09:19.586Z,58.00
2019-03-18T11:11:46.991Z,59.20
2019-03-18T11:14:14.446Z,59.40
2019-03-18T11:16:41.855Z,58.60
2019-03-18T11:19:09.305Z,58.40
2019-03-18T11:21:36.618Z,56.20
2019-03-18T11:24:03.928Z,54.90
2019-03-18T11:26:31.242Z,46.00
2019-03-18T11:28:58.659Z,42.00
2019-03-18T11:31:26.118Z,42.20
2019-03-18T11:33:53.505Z,42.40
2019-03-18T11:36:20.917Z,44.60
2019-03-18T11:38:48.283Z,45.30
2019-03-18T11:41:17.486Z,47.90
2019-03-18T11:43:44.941Z,48.70
2019-03-18T11:46:12.386Z,51.00
2019-03-18T11:48:39.789Z,52.20
2019-03-18T11:51:07.217Z,52.40
2019-03-18T11:53:34.548Z,51.70
2019-03-18T11:56:02.332Z,51.60
2019-03-18T11:58:29.746Z,44.90
2019-03-18T12:00:57.210Z,40.70
2019-03-18T12:03:25.292Z,39.50
2019-03-18T12:05:52.648Z,39.30
2019-03-18T12:08:20.091Z,40.50
2019-03-18T12:10:47.546Z,39.90
2019-03-18T12:13:15.235Z,43.00
2019-03-18T12:15:42.986Z,48.40
2019-03-18T12:18:10.672Z,51.70
2019-03-18T12:20:38.103Z,51.00
2019-03-18T12:23:05.588Z,51.40
2019-03-18T12:25:33.874Z,51.50
2019-03-18T12:28:04.794Z,50.00
2019-03-18T12:30:30.859Z,50.10
2019-03-18T12:32:58.301Z,51.00
2019-03-18T12:35:26.082Z,51.10
2019-03-18T12:37:53.613Z,54.00
2019-03-18T12:40:21.039Z,58.30
2019-03-18T12:42:48.415Z,62.00
2019-03-18T12:45:15.837Z,63.40
2019-03-18T12:47:43.252Z,66.50
2019-03-18T12:50:12.796Z,67.20
2019-03-18T12:52:40.249Z,68.60
2019-03-18T12:55:07.751Z,68.10
2019-03-18T12:57:35.051Z,67.40
2019-03-18T13:00:02.638Z,68.10
2019-03-18T13:02:30.079Z,69.00
2019-03-18T13:04:57.487Z,66.00
2019-03-18T13:07:24.837Z,66.20
2019-03-18T13:09:52.256Z,65.20
2019-03-18T13:12:19.660Z,65.10
2019-03-18T13:14:47.023Z,64.20
2019-03-18T13:17:14.405Z,63.50
2019-03-18T13:19:41.712Z,63.90
2019-03-18T13:22:09.447Z,64.80
2019-03-18T13:24:36.805Z,60.80
2019-03-18T13:27:04.142Z,61.50
2019-03-18T13:29:31.573Z,60.90
2019-03-18T13:31:59.871Z,59.40
2019-03-18T13:34:27.296Z,59.30
2019-03-18T13:36:54.721Z,57.00
2019-03-18T13:39:22.195Z,52.30
2019-03-18T13:41:49.600Z,47.20
2019-03-18T13:44:17.387Z,46.90
2019-03-18T13:46:44.818Z,47.90
2019-03-18T13:49:12.232Z,51.30
2019-03-18T13:51:39.599Z,50.50
2019-03-18T13:54:07.028Z,46.90
2019-03-18T13:56:34.451Z,43.10
2019-03-18T13:59:01.896Z,39.60
2019-03-18T14:01:29.633Z,38.10
2019-03-18T14:03:57.057Z,36.70
2019-03-18T14:06:24.404Z,35.70
2019-03-18T14:08:51.866Z,35.30
2019-03-18T14:11:19.287Z,34.00
2019-03-18T14:13:46.752Z,33.50
2019-03-18T14:16:14.187Z,34.20
2019-03-18T14:18:41.534Z,32.80
2019-03-18T14:21:09.346Z,33.50
2019-03-18T14:23:37.106Z,31.70
2019-03-18T14:26:04.926Z,29.70
2019-03-18T14:28:32.164Z,27.40
2019-03-18T14:30:59.914Z,26.30
2019-03-18T14:33:27.364Z,28.40
2019-03-18T14:35:54.786Z,31.40
2019-03-18T14:38:22.477Z,32.10
2019-03-18T14:40:49.932Z,32.70
2019-03-18T14:43:17.310Z,31.70
2019-03-18T14:45:44.791Z,33.50
2019-03-18T14:48:12.257Z,32.40
2019-03-18T14:50:39.724Z,34.00
2019-03-18T14:53:07.210Z,33.90
2019-03-18T14:55:34.668Z,34.10
2019-03-18T14:58:02.115Z,36.00
2019-03-18T15:00:29.521Z,36.80
2019-03-18T15:02:56.937Z,34.70
2019-03-18T15:05:24.448Z,33.30
2019-03-18T15:07:51.824Z,32.20
2019-03-18T15:10:19.263Z,30.80
2019-03-18T15:12:46.724Z,29.20
2019-03-18T15:15:16.192Z,28.70
2019-03-18T15:17:43.975Z,30.50
2019-03-18T15:20:12.464Z,31.20
2019-03-18T15:22:40.450Z,31.10
2019-03-18T15:25:11.100Z,30.20
2019-03-18T15:27:38.548Z,30.80
2019-03-18T15:30:08.055Z,31.40
2019-03-18T15:32:35.501Z,31.90
2019-03-18T15:35:03.079Z,33.40
2019-03-18T15:37:30.509Z,35.70
2019-03-18T15:39:57.951Z,37.50
2019-03-18T15:42:25.367Z,38.50
2019-03-18T15:44:52.719Z,39.40
2019-03-18T15:47:20.147Z,39.40
2019-03-18T15:49:47.939Z,40.10
2019-03-18T15:52:15.672Z,39.10
2019-03-18T15:54:53.426Z,41.10
2019-03-18T15:57:12.326Z,42.30
2019-03-18T15:59:39.719Z,42.20
2019-03-18T16:02:07.177Z,43.10
2019-03-18T16:04:34.535Z,43.70
2019-03-18T16:07:02.023Z,44.80
2019-03-18T16:09:29.518Z,43.70
2019-03-18T16:11:56.955Z,44.30
2019-03-18T16:14:24.419Z,44.50
2019-03-18T16:17:01.410Z,44.90
2019-03-18T16:19:21.874Z,45.60
2019-03-18T16:21:49.301Z,45.70
2019-03-18T16:24:17.205Z,46.30
2019-03-18T16:26:45.096Z,46.70
2019-03-18T16:29:12.478Z,46.90
2019-03-18T16:31:39.908Z,48.10
2019-03-18T16:34:07.359Z,48.80
2019-03-18T16:36:34.789Z,49.00
2019-03-18T16:39:02.304Z,50.10
2019-03-18T16:41:29.801Z,49.40
2019-03-18T16:43:57.317Z,50.70
2019-03-18T16:46:24.730Z,52.20
2019-03-18T16:48:52.217Z,58.50
2019-03-18T16:51:19.660Z,61.70
2019-03-18T16:53:47.005Z,64.10
2019-03-18T16:56:14.705Z,66.00
2019-03-18T16:58:42.163Z,67.90
2019-03-18T17:01:09.607Z,68.20
2019-03-18T17:03:36.997Z,68.40
2019-03-18T17:06:04.880Z,69.50
2019-03-18T17:08:32.321Z,70.40
2019-03-18T17:10:59.755Z,71.50
2019-03-18T17:13:27.469Z,72.20
2019-03-18T17:15:55.171Z,73.20
2019-03-18T17:18:22.593Z,73.10
2019-03-18T17:20:50.382Z,75.20
2019-03-18T17:23:17.833Z,75.90
2019-03-18T17:25:45.313Z,76.60
2019-03-18T17:28:12.764Z,76.40
2019-03-18T17:30:40.203Z,75.80
2019-03-18T17:33:08.085Z,75.10
2019-03-18T17:35:35.553Z,74.50
2019-03-18T17:38:03.401Z,74.30
2019-03-18T17:40:30.866Z,72.70
2019-03-18T17:42:58.393Z,74.10
2019-03-18T17:45:25.774Z,71.90
2019-03-18T17:47:53.276Z,73.30
2019-03-18T17:50:21.099Z,73.60
2019-03-18T17:53:01.000Z,73.60
2019-03-18T17:55:17.893Z,75.00
2019-03-18T17:57:45.313Z,75.20
2019-03-18T18:00:17.606Z,74.10
2019-03-18T18:02:45.062Z,73.20
2019-03-18T18:05:12.782Z,74.20
2019-03-18T18:07:40.306Z,73.30
2019-03-18T18:10:07.985Z,73.80
2019-03-18T18:12:35.478Z,73.10
2019-03-18T18:15:03.127Z,72.60
2019-03-18T18:17:31.429Z,73.30
2019-03-18T18:19:58.980Z,73.50
2019-03-18T18:22:26.850Z,74.80
2019-03-18T18:24:54.290Z,75.50
2019-03-18T18:27:21.760Z,76.30
2019-03-18T18:29:49.249Z,75.60
2019-03-18T18:32:17.132Z,75.80
2019-03-18T18:34:45.013Z,75.20
2019-03-18T18:37:12.494Z,74.60
2019-03-18T18:39:40.014Z,74.80
2019-03-18T18:42:07.479Z,75.60
2019-03-18T18:44:34.895Z,76.40
2019-03-18T18:47:02.998Z,76.40
2019-03-18T18:49:30.548Z,76.50
2019-03-18T18:51:58.062Z,76.50
2019-03-18T18:54:25.597Z,76.30
2019-03-18T18:56:53.502Z,75.50
2019-03-18T18:59:21.043Z,75.60
2019-03-18T19:01:49.343Z,75.70
2019-03-18T19:04:16.831Z,75.10
2019-03-18T19:06:44.675Z,74.80
2019-03-18T19:09:12.203Z,73.90
2019-03-18T19:11:39.729Z,74.80
2019-03-18T19:14:07.245Z,75.30
2019-03-18T19:16:34.728Z,75.60
2019-03-18T19:19:02.247Z,75.50
2019-03-18T19:21:29.847Z,74.90
2019-03-18T19:23:57.309Z,74.70
2019-03-18T19:26:24.848Z,75.10
2019-03-18T19:28:52.344Z,75.20
2019-03-18T19:31:19.929Z,75.60
2019-03-18T19:33:47.920Z,77.00
2019-03-18T19:36:15.547Z,77.40
2019-03-18T19:38:43.620Z,77.30
2019-03-18T19:41:11.571Z,75.80
2019-03-18T19:43:39.133Z,75.90
2019-03-18T19:46:06.702Z,75.90
2019-03-18T19:48:34.608Z,75.90
2019-03-18T19:51:02.626Z,76.20
2019-03-18T19:53:30.115Z,76.10
2019-03-18T19:55:57.677Z,77.90
2019-03-18T19:58:25.151Z,78.40
2019-03-18T20:00:52.687Z,78.80
2019-03-18T20:03:20.261Z,78.30
2019-03-18T20:05:47.852Z,77.90
2019-03-18T20:08:15.393Z,78.20
2019-03-18T20:10:43.016Z,78.00
2019-03-18T20:13:10.542Z,77.70
2019-03-18T20:15:38.556Z,77.60
2019-03-18T20:18:06.060Z,78.40
2019-03-18T20:20:34.070Z,77.70
2019-03-18T20:23:01.697Z,78.30
2019-03-18T20:25:29.264Z,79.20
2019-03-18T20:27:56.849Z,79.20
2019-03-18T20:30:24.677Z,78.90
2019-03-18T20:32:52.287Z,78.90
2019-03-18T20:35:19.902Z,78.30
2019-03-18T20:37:47.439Z,78.00
2019-03-18T20:40:15.405Z,77.60
2019-03-18T20:42:42.945Z,77.50
2019-03-18T20:45:12.214Z,78.90
2019-03-18T20:47:39.733Z,80.00
2019-03-18T20:50:09.551Z,79.80
2019-03-18T20:52:37.129Z,79.20
2019-03-18T20:55:04.768Z,79.80
2019-03-18T20:57:32.287Z,79.80
2019-03-18T20:59:59.858Z,79.10
2019-03-18T21:02:27.313Z,78.30
2019-03-18T21:04:54.689Z,77.70
2019-03-18T21:07:22.172Z,77.00
2019-03-18T21:09:49.652Z,78.00
2019-03-18T21:12:17.156Z,77.80
2019-03-18T21:14:44.640Z,77.50
2019-03-18T21:17:12.113Z,78.00
2019-03-18T21:19:39.464Z,78.90
2019-03-18T21:22:06.933Z,79.20
2019-03-18T21:24:34.470Z,78.10
2019-03-18T21:27:01.964Z,78.00
2019-03-18T21:29:29.501Z,78.00
2019-03-18T21:31:57.258Z,78.00
2019-03-18T21:34:24.726Z,77.80
2019-03-18T21:36:52.186Z,78.00
2019-03-18T21:39:19.660Z,77.90
2019-03-18T21:41:47.126Z,77.50
2019-03-18T21:44:14.586Z,77.50
2019-03-18T21:46:43.397Z,77.40
2019-03-18T21:49:11.181Z,78.50
2019-03-18T21:51:38.630Z,78.20
2019-03-18T21:54:05.990Z,78.00
2019-03-18T21:56:33.473Z,78.40
2019-03-18T21:59:02.020Z,79.90
2019-03-18T22:01:29.695Z,80.10
2019-03-18T22:03:57.891Z,81.30
2019-03-18T22:06:25.376Z,81.10
2019-03-18T22:08:52.815Z,79.80
2019-03-18T22:11:20.272Z,79.00
2019-03-18T22:13:47.727Z,78.80
2019-03-18T22:16:15.469Z,78.10
2019-03-18T22:18:43.043Z,78.60
2019-03-18T22:21:10.517Z,79.20
2019-03-18T22:23:37.961Z,79.00
2019-03-18T22:26:05.471Z,78.40
2019-03-18T22:28:32.820Z,78.20
2019-03-18T22:31:00.263Z,78.00
2019-03-18T22:33:28.225Z,78.20
2019-03-18T22:35:55.621Z,78.20
2019-03-18T22:38:23.329Z,77.40
2019-03-18T22:40:50.771Z,78.00
2019-03-18T22:43:18.207Z,78.60
2019-03-18T22:45:45.640Z,78.60
2019-03-18T22:48:12.968Z,78.40
2019-03-18T22:50:40.334Z,78.40
2019-03-18T22:53:07.756Z,78.30
2019-03-18T22:55:35.163Z,78.10
2019-03-18T22:58:02.496Z,78.00
2019-03-18T23:00:46.155Z,77.90
2019-03-18T23:03:13.584Z,78.40
2019-03-18T23:05:41.074Z,78.60
2019-03-18T23:08:08.477Z,78.40
2019-03-18T23:10:35.803Z,79.00
2019-03-18T23:13:03.263Z,80.10
2019-03-18T23:15:30.700Z,81.20
2019-03-18T23:17:58.100Z,80.90
2019-03-18T23:20:25.556Z,80.70
2019-03-18T23:22:52.987Z,81.60
2019-03-18T23:25:20.377Z,81.40
2019-03-18T23:27:48.042Z,81.80
2019-03-18T23:30:15.475Z,81.40
2019-03-18T23:32:42.896Z,80.50
2019-03-18T23:35:10.743Z,80.70
2019-03-18T23:37:38.141Z,79.90
2019-03-18T23:40:05.577Z,80.10
2019-03-18T23:42:33.030Z,81.10
2019-03-18T23:45:00.491Z,82.30
2019-03-18T23:47:27.861Z,83.50
2019-03-18T23:49:55.255Z,82.80
2019-03-18T23:52:22.679Z,82.60
2019-03-18T23:54:50.089Z,82.70
2019-03-18T23:57:17.420Z,82.10
2019-03-18T23:59:44.812Z,81.80
